sensor_id;sensor_type;location;lat;lon;timestamp;temperature;humidity
3202;DHT22;34843;48.744;8.958;2024-03-25T00:01:13;4.60;99.90
3202;DHT22;34843;48.744;8.958;2024-03-25T00:03:39;4.50;99.90
3202;DHT22;34843;48.744;8.958;2024-03-25T00:06:05;4.60;99.90
3202;DHT22;34843;48.744;8.958;2024-03-25T00:08:30;4.50;99.90
3202;DHT22;34843;48.744;8.958;2024-03-25T00:10:56;4.50;99.90
3202;DHT22;34843;48.744;8.958;2024-03-25T00:13:22;4.50;99.90
3202;DHT22;34843;48.744;8.958;2024-03-25T00:15:47;4.50;99.90
3202;DHT22;34843;48.744;8.958;2024-03-25T00:18:12;4.50;99.90
3202;DHT22;34843;48.744;8.958;2024-03-25T00:20:38;4.50;99.90
3202;DHT22;34843;48.744;8.958;2024-03-25T00:23:04;4.40;99.90
3202;DHT22;34843;48.744;8.958;2024-03-25T00:25:29;4.30;99.90
3202;DHT22;34843;48.744;8.958;2024-03-25T00:27:55;4.20;99.90
3202;DHT22;34843;48.744;8.958;2024-03-25T00:30:22;4.00;99.90
3202;DHT22;34843;48.744;8.958;2024-03-25T00:32:47;4.00;99.90
3202;DHT22;34843;48.744;8.958;2024-03-25T00:35:13;3.90;99.90
3202;DHT22;34843;48.744;8.958;2024-03-25T00:37:38;3.80;99.90
3202;DHT22;34843;48.744;8.958;2024-03-25T00:40:04;3.70;99.90
3202;DHT22;34843;48.744;8.958;2024-03-25T00:42:32;3.70;99.90
3202;DHT22;34843;48.744;8.958;2024-03-25T00:44:58;3.60;99.90
3202;DHT22;34843;48.744;8.958;2024-03-25T00:47:24;3.60;99.90
3202;DHT22;34843;48.744;8.958;2024-03-25T00:49:49;3.60;99.90
3202;DHT22;34843;48.744;8.958;2024-03-25T00:52:15;3.50;99.90
3202;DHT22;34843;48.744;8.958;2024-03-25T00:54:40;3.50;99.90
3202;DHT22;34843;48.744;8.958;2024-03-25T00:57:06;3.40;99.90
3202;DHT22;34843;48.744;8.958;2024-03-25T00:59:31;3.40;99.90
3202;DHT22;34843;48.744;8.958;2024-03-25T01:01:57;3.40;99.90
3202;DHT22;34843;48.744;8.958;2024-03-25T01:04:23;3.40;99.90
3202;DHT22;34843;48.744;8.958;2024-03-25T01:06:48;3.40;99.90
3202;DHT22;34843;48.744;8.958;2024-03-25T01:09:14;3.30;99.90
3202;DHT22;34843;48.744;8.958;2024-03-25T01:11:39;3.30;99.90
3202;DHT22;34843;48.744;8.958;2024-03-25T01:14:05;3.30;99.90
3202;DHT22;34843;48.744;8.958;2024-03-25T01:16:31;3.30;99.90
3202;DHT22;34843;48.744;8.958;2024-03-25T01:18:57;3.30;99.90
3202;DHT22;34843;48.744;8.958;2024-03-25T01:21:24;3.20;99.90
3202;DHT22;34843;48.744;8.958;2024-03-25T01:23:50;3.20;99.90
3202;DHT22;34843;48.744;8.958;2024-03-25T01:26:15;3.20;99.90
3202;DHT22;34843;48.744;8.958;2024-03-25T01:28:42;3.10;99.90
3202;DHT22;34843;48.744;8.958;2024-03-25T01:31:07;3.10;99.90
3202;DHT22;34843;48.744;8.958;2024-03-25T01:33:33;3.00;99.90
3202;DHT22;34843;48.744;8.958;2024-03-25T01:36:00;3.10;99.90
3202;DHT22;34843;48.744;8.958;2024-03-25T01:38:25;3.10;99.90
3202;DHT22;34843;48.744;8.958;2024-03-25T01:40:51;3.10;99.90
3202;DHT22;34843;48.744;8.958;2024-03-25T01:43:16;3.10;99.90
3202;DHT22;34843;48.744;8.958;2024-03-25T01:45:42;3.20;99.90
3202;DHT22;34843;48.744;8.958;2024-03-25T01:48:10;3.30;99.90
3202;DHT22;34843;48.744;8.958;2024-03-25T01:50:39;3.30;99.90
3202;DHT22;34843;48.744;8.958;2024-03-25T01:53:06;3.40;99.90
3202;DHT22;34843;48.744;8.958;2024-03-25T01:55:34;3.50;99.90
3202;DHT22;34843;48.744;8.958;2024-03-25T01:58:01;3.50;99.90
3202;DHT22;34843;48.744;8.958;2024-03-25T02:00:27;3.60;99.90
3202;DHT22;34843;48.744;8.958;2024-03-25T02:02:53;3.60;99.90
3202;DHT22;34843;48.744;8.958;2024-03-25T02:05:20;3.70;99.90
3202;DHT22;34843;48.744;8.958;2024-03-25T02:07:46;3.70;99.90
3202;DHT22;34843;48.744;8.958;2024-03-25T02:10:12;3.90;99.90
3202;DHT22;34843;48.744;8.958;2024-03-25T02:12:45;3.90;99.90
3202;DHT22;34843;48.744;8.958;2024-03-25T02:15:11;3.90;99.90
3202;DHT22;34843;48.744;8.958;2024-03-25T02:17:38;3.90;99.90
3202;DHT22;34843;48.744;8.958;2024-03-25T02:20:05;4.00;99.90
3202;DHT22;34843;48.744;8.958;2024-03-25T02:22:32;4.00;99.90
3202;DHT22;34843;48.744;8.958;2024-03-25T02:24:59;4.00;99.90
3202;DHT22;34843;48.744;8.958;2024-03-25T02:27:26;4.00;99.90
3202;DHT22;34843;48.744;8.958;2024-03-25T02:30:05;4.10;99.90
3202;DHT22;34843;48.744;8.958;2024-03-25T02:32:33;4.10;99.90
3202;DHT22;34843;48.744;8.958;2024-03-25T02:34:58;4.10;99.90
3202;DHT22;34843;48.744;8.958;2024-03-25T02:37:25;4.10;99.90
3202;DHT22;34843;48.744;8.958;2024-03-25T02:39:51;4.10;99.90
3202;DHT22;34843;48.744;8.958;2024-03-25T02:42:17;4.20;99.90
3202;DHT22;34843;48.744;8.958;2024-03-25T02:44:43;4.20;99.90
3202;DHT22;34843;48.744;8.958;2024-03-25T02:47:09;4.30;99.90
3202;DHT22;34843;48.744;8.958;2024-03-25T02:49:35;4.30;99.90
3202;DHT22;34843;48.744;8.958;2024-03-25T02:52:01;4.40;99.90
3202;DHT22;34843;48.744;8.958;2024-03-25T02:54:26;4.30;99.90
3202;DHT22;34843;48.744;8.958;2024-03-25T02:56:52;4.30;99.90
3202;DHT22;34843;48.744;8.958;2024-03-25T02:59:18;4.40;99.90
3202;DHT22;34843;48.744;8.958;2024-03-25T03:01:43;4.30;99.90
3202;DHT22;34843;48.744;8.958;2024-03-25T03:04:09;4.30;99.90
3202;DHT22;34843;48.744;8.958;2024-03-25T03:06:34;4.30;99.90
3202;DHT22;34843;48.744;8.958;2024-03-25T03:08:59;4.30;99.90
3202;DHT22;34843;48.744;8.958;2024-03-25T03:11:25;4.30;99.90
3202;DHT22;34843;48.744;8.958;2024-03-25T03:13:50;4.30;99.90
3202;DHT22;34843;48.744;8.958;2024-03-25T03:16:16;4.20;99.90
3202;DHT22;34843;48.744;8.958;2024-03-25T03:18:42;4.20;99.90
3202;DHT22;34843;48.744;8.958;2024-03-25T03:21:07;4.10;99.90
3202;DHT22;34843;48.744;8.958;2024-03-25T03:23:32;4.10;99.90
3202;DHT22;34843;48.744;8.958;2024-03-25T03:25:58;4.10;99.90
3202;DHT22;34843;48.744;8.958;2024-03-25T03:28:25;4.00;99.90
3202;DHT22;34843;48.744;8.958;2024-03-25T03:30:50;4.00;99.90
3202;DHT22;34843;48.744;8.958;2024-03-25T03:33:16;4.00;99.90
3202;DHT22;34843;48.744;8.958;2024-03-25T03:35:42;4.00;99.90
3202;DHT22;34843;48.744;8.958;2024-03-25T03:38:08;4.00;99.90
3202;DHT22;34843;48.744;8.958;2024-03-25T03:40:33;3.90;99.90
3202;DHT22;34843;48.744;8.958;2024-03-25T03:42:59;3.90;99.90
3202;DHT22;34843;48.744;8.958;2024-03-25T03:45:25;3.80;99.90
3202;DHT22;34843;48.744;8.958;2024-03-25T03:47:50;3.70;99.90
3202;DHT22;34843;48.744;8.958;2024-03-25T03:50:16;3.60;99.90
3202;DHT22;34843;48.744;8.958;2024-03-25T03:52:42;3.60;99.90
3202;DHT22;34843;48.744;8.958;2024-03-25T03:55:08;3.60;99.90
3202;DHT22;34843;48.744;8.958;2024-03-25T03:57:33;3.60;99.90
3202;DHT22;34843;48.744;8.958;2024-03-25T03:59:59;3.60;99.90
3202;DHT22;34843;48.744;8.958;2024-03-25T04:02:25;3.60;99.90
3202;DHT22;34843;48.744;8.958;2024-03-25T04:04:51;3.60;99.90
3202;DHT22;34843;48.744;8.958;2024-03-25T04:07:16;3.60;99.90
3202;DHT22;34843;48.744;8.958;2024-03-25T04:09:43;3.60;99.90
3202;DHT22;34843;48.744;8.958;2024-03-25T04:12:09;3.60;99.90
3202;DHT22;34843;48.744;8.958;2024-03-25T04:14:34;3.60;99.90
3202;DHT22;34843;48.744;8.958;2024-03-25T04:17:00;3.50;99.90
3202;DHT22;34843;48.744;8.958;2024-03-25T04:19:26;3.50;99.90
3202;DHT22;34843;48.744;8.958;2024-03-25T04:21:55;3.40;99.90
3202;DHT22;34843;48.744;8.958;2024-03-25T04:24:21;3.40;99.90
3202;DHT22;34843;48.744;8.958;2024-03-25T04:26:46;3.30;99.90
3202;DHT22;34843;48.744;8.958;2024-03-25T04:29:14;3.30;99.90
3202;DHT22;34843;48.744;8.958;2024-03-25T04:31:39;3.30;99.90
3202;DHT22;34843;48.744;8.958;2024-03-25T04:34:05;3.30;99.90
3202;DHT22;34843;48.744;8.958;2024-03-25T04:36:31;3.30;99.90
3202;DHT22;34843;48.744;8.958;2024-03-25T04:38:56;3.30;99.90
3202;DHT22;34843;48.744;8.958;2024-03-25T04:41:22;3.30;99.90
3202;DHT22;34843;48.744;8.958;2024-03-25T04:43:48;3.30;99.90
3202;DHT22;34843;48.744;8.958;2024-03-25T04:46:13;3.30;99.90
3202;DHT22;34843;48.744;8.958;2024-03-25T04:48:39;3.30;99.90
3202;DHT22;34843;48.744;8.958;2024-03-25T04:51:04;3.30;99.90
3202;DHT22;34843;48.744;8.958;2024-03-25T04:53:30;3.30;99.90
3202;DHT22;34843;48.744;8.958;2024-03-25T04:55:56;3.30;99.90
3202;DHT22;34843;48.744;8.958;2024-03-25T04:58:22;3.20;99.90
3202;DHT22;34843;48.744;8.958;2024-03-25T05:00:47;3.20;99.90
3202;DHT22;34843;48.744;8.958;2024-03-25T05:03:12;3.20;99.90
3202;DHT22;34843;48.744;8.958;2024-03-25T05:05:38;3.20;99.90
3202;DHT22;34843;48.744;8.958;2024-03-25T05:08:04;3.30;99.90
3202;DHT22;34843;48.744;8.958;2024-03-25T05:10:29;3.40;99.90
3202;DHT22;34843;48.744;8.958;2024-03-25T05:12:55;3.40;99.90
3202;DHT22;34843;48.744;8.958;2024-03-25T05:15:21;3.50;99.90
3202;DHT22;34843;48.744;8.958;2024-03-25T05:17:46;3.50;99.90
3202;DHT22;34843;48.744;8.958;2024-03-25T05:20:12;3.60;99.90
3202;DHT22;34843;48.744;8.958;2024-03-25T05:22:37;3.70;99.90
3202;DHT22;34843;48.744;8.958;2024-03-25T05:25:03;3.70;99.90
3202;DHT22;34843;48.744;8.958;2024-03-25T05:27:29;3.80;99.90
3202;DHT22;34843;48.744;8.958;2024-03-25T05:29:54;3.90;99.90
3202;DHT22;34843;48.744;8.958;2024-03-25T05:32:19;3.90;99.90
3202;DHT22;34843;48.744;8.958;2024-03-25T05:34:47;4.00;99.90
3202;DHT22;34843;48.744;8.958;2024-03-25T05:37:13;4.00;99.90
3202;DHT22;34843;48.744;8.958;2024-03-25T05:39:39;4.10;99.90
3202;DHT22;34843;48.744;8.958;2024-03-25T05:42:04;4.10;99.90
3202;DHT22;34843;48.744;8.958;2024-03-25T05:44:30;4.20;99.90
3202;DHT22;34843;48.744;8.958;2024-03-25T05:46:55;4.30;99.90
3202;DHT22;34843;48.744;8.958;2024-03-25T05:49:21;4.30;99.90
3202;DHT22;34843;48.744;8.958;2024-03-25T05:51:46;4.40;99.90
3202;DHT22;34843;48.744;8.958;2024-03-25T05:54:13;4.40;99.90
3202;DHT22;34843;48.744;8.958;2024-03-25T05:56:38;4.50;99.90
3202;DHT22;34843;48.744;8.958;2024-03-25T05:59:04;4.50;99.90
3202;DHT22;34843;48.744;8.958;2024-03-25T06:01:29;4.60;99.90
3202;DHT22;34843;48.744;8.958;2024-03-25T06:03:55;4.60;99.90
3202;DHT22;34843;48.744;8.958;2024-03-25T06:06:20;4.50;99.90
3202;DHT22;34843;48.744;8.958;2024-03-25T06:08:46;4.50;99.90
3202;DHT22;34843;48.744;8.958;2024-03-25T06:11:12;4.40;99.90
3202;DHT22;34843;48.744;8.958;2024-03-25T06:13:37;4.40;99.90
3202;DHT22;34843;48.744;8.958;2024-03-25T06:16:03;4.40;99.90
3202;DHT22;34843;48.744;8.958;2024-03-25T06:18:29;4.30;99.90
3202;DHT22;34843;48.744;8.958;2024-03-25T06:20:54;4.30;99.90
3202;DHT22;34843;48.744;8.958;2024-03-25T06:23:28;4.30;99.90
3202;DHT22;34843;48.744;8.958;2024-03-25T06:25:54;4.20;99.90
3202;DHT22;34843;48.744;8.958;2024-03-25T06:28:21;4.60;99.90
3202;DHT22;34843;48.744;8.958;2024-03-25T06:30:47;4.20;99.90
3202;DHT22;34843;48.744;8.958;2024-03-25T06:33:32;4.50;99.90
3202;DHT22;34843;48.744;8.958;2024-03-25T06:36:17;4.70;99.90
3202;DHT22;34843;48.744;8.958;2024-03-25T06:38:43;6.00;99.90
3202;DHT22;34843;48.744;8.958;2024-03-25T06:41:08;7.00;99.90
3202;DHT22;34843;48.744;8.958;2024-03-25T06:43:35;7.30;99.90
3202;DHT22;34843;48.744;8.958;2024-03-25T06:46:00;7.40;99.90
3202;DHT22;34843;48.744;8.958;2024-03-25T06:48:26;7.60;99.90
3202;DHT22;34843;48.744;8.958;2024-03-25T06:50:58;8.10;99.90
3202;DHT22;34843;48.744;8.958;2024-03-25T06:53:25;9.40;99.90
3202;DHT22;34843;48.744;8.958;2024-03-25T06:58:17;11.90;99.90
3202;DHT22;34843;48.744;8.958;2024-03-25T07:00:42;13.70;99.90
3202;DHT22;34843;48.744;8.958;2024-03-25T07:03:08;15.30;99.90
3202;DHT22;34843;48.744;8.958;2024-03-25T07:05:34;16.30;99.90
3202;DHT22;34843;48.744;8.958;2024-03-25T07:08:00;16.90;99.90
3202;DHT22;34843;48.744;8.958;2024-03-25T07:10:25;17.80;99.90
3202;DHT22;34843;48.744;8.958;2024-03-25T07:12:51;18.50;99.90
3202;DHT22;34843;48.744;8.958;2024-03-25T07:15:16;19.00;99.90
3202;DHT22;34843;48.744;8.958;2024-03-25T07:17:42;19.40;99.90
3202;DHT22;34843;48.744;8.958;2024-03-25T07:20:08;19.40;99.90
3202;DHT22;34843;48.744;8.958;2024-03-25T07:22:34;19.30;99.90
3202;DHT22;34843;48.744;8.958;2024-03-25T07:24:59;19.30;99.90
3202;DHT22;34843;48.744;8.958;2024-03-25T07:27:25;19.10;99.90
3202;DHT22;34843;48.744;8.958;2024-03-25T07:29:50;18.60;99.90
3202;DHT22;34843;48.744;8.958;2024-03-25T07:32:16;18.90;99.90
3202;DHT22;34843;48.744;8.958;2024-03-25T07:34:42;19.00;99.90
3202;DHT22;34843;48.744;8.958;2024-03-25T07:37:07;18.00;99.90
3202;DHT22;34843;48.744;8.958;2024-03-25T07:39:33;16.10;99.90
3202;DHT22;34843;48.744;8.958;2024-03-25T07:41:58;14.50;99.90
3202;DHT22;34843;48.744;8.958;2024-03-25T07:44:24;12.70;99.90
3202;DHT22;34843;48.744;8.958;2024-03-25T07:46:50;14.50;99.90
3202;DHT22;34843;48.744;8.958;2024-03-25T07:49:15;10.60;99.90
3202;DHT22;34843;48.744;8.958;2024-03-25T07:51:41;9.70;99.90
3202;DHT22;34843;48.744;8.958;2024-03-25T07:54:07;8.80;99.90
3202;DHT22;34843;48.744;8.958;2024-03-25T07:56:33;8.60;99.90
3202;DHT22;34843;48.744;8.958;2024-03-25T07:59:02;8.60;99.90
3202;DHT22;34843;48.744;8.958;2024-03-25T08:01:28;8.50;99.90
3202;DHT22;34843;48.744;8.958;2024-03-25T08:03:54;8.60;99.90
3202;DHT22;34843;48.744;8.958;2024-03-25T08:06:19;8.60;99.90
3202;DHT22;34843;48.744;8.958;2024-03-25T08:08:46;8.50;99.90
3202;DHT22;34843;48.744;8.958;2024-03-25T08:11:12;8.50;99.90
3202;DHT22;34843;48.744;8.958;2024-03-25T08:13:37;8.60;99.90
3202;DHT22;34843;48.744;8.958;2024-03-25T08:16:03;8.60;99.90
3202;DHT22;34843;48.744;8.958;2024-03-25T08:18:29;8.70;99.90
3202;DHT22;34843;48.744;8.958;2024-03-25T08:20:54;9.00;99.90
3202;DHT22;34843;48.744;8.958;2024-03-25T08:23:20;9.00;99.90
3202;DHT22;34843;48.744;8.958;2024-03-25T08:25:45;9.00;99.90
3202;DHT22;34843;48.744;8.958;2024-03-25T08:28:11;8.80;99.90
3202;DHT22;34843;48.744;8.958;2024-03-25T08:30:36;8.80;99.90
3202;DHT22;34843;48.744;8.958;2024-03-25T08:33:02;9.30;99.90
3202;DHT22;34843;48.744;8.958;2024-03-25T08:35:28;9.40;99.90
3202;DHT22;34843;48.744;8.958;2024-03-25T08:37:53;9.70;99.90
3202;DHT22;34843;48.744;8.958;2024-03-25T08:40:18;9.80;99.90
3202;DHT22;34843;48.744;8.958;2024-03-25T08:42:44;10.20;99.90
3202;DHT22;34843;48.744;8.958;2024-03-25T08:45:09;10.20;99.90
3202;DHT22;34843;48.744;8.958;2024-03-25T08:47:36;10.30;99.90
3202;DHT22;34843;48.744;8.958;2024-03-25T08:50:03;10.40;99.90
3202;DHT22;34843;48.744;8.958;2024-03-25T08:52:29;10.40;99.90
3202;DHT22;34843;48.744;8.958;2024-03-25T08:54:54;10.40;99.90
3202;DHT22;34843;48.744;8.958;2024-03-25T08:57:20;10.30;99.90
3202;DHT22;34843;48.744;8.958;2024-03-25T08:59:45;10.20;99.90
3202;DHT22;34843;48.744;8.958;2024-03-25T09:02:11;10.20;99.90
3202;DHT22;34843;48.744;8.958;2024-03-25T09:04:36;10.10;99.90
3202;DHT22;34843;48.744;8.958;2024-03-25T09:07:01;10.10;99.90
3202;DHT22;34843;48.744;8.958;2024-03-25T09:09:28;10.00;99.90
3202;DHT22;34843;48.744;8.958;2024-03-25T09:12:12;10.00;99.90
3202;DHT22;34843;48.744;8.958;2024-03-25T09:14:37;9.80;99.90
3202;DHT22;34843;48.744;8.958;2024-03-25T09:17:04;9.90;99.90
3202;DHT22;34843;48.744;8.958;2024-03-25T09:19:29;10.00;99.90
3202;DHT22;34843;48.744;8.958;2024-03-25T09:21:55;10.00;99.90
3202;DHT22;34843;48.744;8.958;2024-03-25T09:24:20;10.30;99.90
3202;DHT22;34843;48.744;8.958;2024-03-25T09:26:46;10.30;99.90
3202;DHT22;34843;48.744;8.958;2024-03-25T09:29:11;10.50;99.90
3202;DHT22;34843;48.744;8.958;2024-03-25T09:31:37;10.50;99.90
3202;DHT22;34843;48.744;8.958;2024-03-25T09:34:02;10.70;99.90
3202;DHT22;34843;48.744;8.958;2024-03-25T09:36:28;10.80;99.90
3202;DHT22;34843;48.744;8.958;2024-03-25T09:38:53;10.90;99.90
3202;DHT22;34843;48.744;8.958;2024-03-25T09:41:19;11.00;99.90
3202;DHT22;34843;48.744;8.958;2024-03-25T09:43:48;10.60;99.90
3202;DHT22;34843;48.744;8.958;2024-03-25T09:46:15;10.60;99.90
3202;DHT22;34843;48.744;8.958;2024-03-25T09:48:42;10.70;99.90
3202;DHT22;34843;48.744;8.958;2024-03-25T09:51:09;10.70;99.90
3202;DHT22;34843;48.744;8.958;2024-03-25T09:53:35;10.80;99.90
3202;DHT22;34843;48.744;8.958;2024-03-25T09:56:00;10.90;99.90
3202;DHT22;34843;48.744;8.958;2024-03-25T09:58:26;10.90;99.90
3202;DHT22;34843;48.744;8.958;2024-03-25T10:00:52;10.70;99.90
3202;DHT22;34843;48.744;8.958;2024-03-25T10:03:18;10.50;99.90
3202;DHT22;34843;48.744;8.958;2024-03-25T10:05:44;10.50;99.90
3202;DHT22;34843;48.744;8.958;2024-03-25T10:08:09;10.50;99.90
3202;DHT22;34843;48.744;8.958;2024-03-25T10:10:35;10.60;99.90
3202;DHT22;34843;48.744;8.958;2024-03-25T10:15:28;10.60;99.90
3202;DHT22;34843;48.744;8.958;2024-03-25T10:17:54;10.70;99.90
3202;DHT22;34843;48.744;8.958;2024-03-25T10:20:19;10.60;99.90
3202;DHT22;34843;48.744;8.958;2024-03-25T10:22:46;10.70;99.90
3202;DHT22;34843;48.744;8.958;2024-03-25T10:27:56;11.00;99.90
3202;DHT22;34843;48.744;8.958;2024-03-25T10:30:21;11.10;99.90
3202;DHT22;34843;48.744;8.958;2024-03-25T10:32:58;11.10;99.90
3202;DHT22;34843;48.744;8.958;2024-03-25T10:35:26;10.80;99.90
3202;DHT22;34843;48.744;8.958;2024-03-25T10:38:01;10.80;99.90
3202;DHT22;34843;48.744;8.958;2024-03-25T10:40:28;10.70;99.90
3202;DHT22;34843;48.744;8.958;2024-03-25T10:43:14;10.90;99.90
3202;DHT22;34843;48.744;8.958;2024-03-25T10:45:45;11.30;99.90
3202;DHT22;34843;48.744;8.958;2024-03-25T10:48:25;11.60;99.90
3202;DHT22;34843;48.744;8.958;2024-03-25T10:50:53;11.40;99.90
3202;DHT22;34843;48.744;8.958;2024-03-25T10:53:21;11.10;99.90
3202;DHT22;34843;48.744;8.958;2024-03-25T10:55:47;11.00;99.90
3202;DHT22;34843;48.744;8.958;2024-03-25T10:58:15;11.40;99.90
3202;DHT22;34843;48.744;8.958;2024-03-25T11:00:42;11.40;99.90
3202;DHT22;34843;48.744;8.958;2024-03-25T11:03:08;11.30;99.90
3202;DHT22;34843;48.744;8.958;2024-03-25T11:05:34;11.40;99.90
3202;DHT22;34843;48.744;8.958;2024-03-25T11:08:13;11.50;99.90
3202;DHT22;34843;48.744;8.958;2024-03-25T11:10:43;11.20;99.90
3202;DHT22;34843;48.744;8.958;2024-03-25T11:13:19;11.10;99.90
3202;DHT22;34843;48.744;8.958;2024-03-25T11:15:48;11.00;99.90
3202;DHT22;34843;48.744;8.958;2024-03-25T11:18:18;10.80;99.90
3202;DHT22;34843;48.744;8.958;2024-03-25T11:21:02;10.90;99.90
3202;DHT22;34843;48.744;8.958;2024-03-25T11:23:42;10.70;99.90
3202;DHT22;34843;48.744;8.958;2024-03-25T11:26:19;10.60;99.90
3202;DHT22;34843;48.744;8.958;2024-03-25T11:28:45;10.40;99.90
3202;DHT22;34843;48.744;8.958;2024-03-25T11:31:11;10.50;99.90
3202;DHT22;34843;48.744;8.958;2024-03-25T11:33:38;10.80;99.90
3202;DHT22;34843;48.744;8.958;2024-03-25T11:36:04;11.00;99.90
3202;DHT22;34843;48.744;8.958;2024-03-25T11:38:30;11.10;99.90
3202;DHT22;34843;48.744;8.958;2024-03-25T11:40:56;11.20;99.90
3202;DHT22;34843;48.744;8.958;2024-03-25T11:43:22;10.90;99.90
3202;DHT22;34843;48.744;8.958;2024-03-25T11:45:48;10.80;99.90
3202;DHT22;34843;48.744;8.958;2024-03-25T11:48:15;11.00;99.90
3202;DHT22;34843;48.744;8.958;2024-03-25T11:50:41;11.20;99.90
3202;DHT22;34843;48.744;8.958;2024-03-25T11:53:07;11.50;99.90
3202;DHT22;34843;48.744;8.958;2024-03-25T11:55:32;11.80;99.90
3202;DHT22;34843;48.744;8.958;2024-03-25T11:57:58;11.80;99.90
3202;DHT22;34843;48.744;8.958;2024-03-25T12:00:24;11.90;99.90
3202;DHT22;34843;48.744;8.958;2024-03-25T12:02:50;11.80;99.90
3202;DHT22;34843;48.744;8.958;2024-03-25T12:05:17;12.00;99.90
3202;DHT22;34843;48.744;8.958;2024-03-25T12:07:42;11.90;99.90
3202;DHT22;34843;48.744;8.958;2024-03-25T12:10:08;11.90;99.90
3202;DHT22;34843;48.744;8.958;2024-03-25T12:12:52;12.00;99.90
3202;DHT22;34843;48.744;8.958;2024-03-25T12:15:18;12.20;99.90
3202;DHT22;34843;48.744;8.958;2024-03-25T12:17:44;12.30;99.90
3202;DHT22;34843;48.744;8.958;2024-03-25T12:20:10;12.10;99.90
3202;DHT22;34843;48.744;8.958;2024-03-25T12:22:38;11.80;99.90
3202;DHT22;34843;48.744;8.958;2024-03-25T12:25:06;11.90;99.90
3202;DHT22;34843;48.744;8.958;2024-03-25T12:27:32;11.80;99.90
3202;DHT22;34843;48.744;8.958;2024-03-25T12:30:03;11.60;99.90
3202;DHT22;34843;48.744;8.958;2024-03-25T12:32:41;11.70;99.90
3202;DHT22;34843;48.744;8.958;2024-03-25T12:35:11;11.70;99.90
3202;DHT22;34843;48.744;8.958;2024-03-25T12:37:40;11.90;99.90
3202;DHT22;34843;48.744;8.958;2024-03-25T12:40:07;11.80;99.90
3202;DHT22;34843;48.744;8.958;2024-03-25T12:42:34;11.70;99.90
3202;DHT22;34843;48.744;8.958;2024-03-25T12:45:00;11.60;99.90
3202;DHT22;34843;48.744;8.958;2024-03-25T12:47:26;11.50;99.90
3202;DHT22;34843;48.744;8.958;2024-03-25T12:49:51;11.60;99.90
3202;DHT22;34843;48.744;8.958;2024-03-25T12:52:17;11.60;99.90
3202;DHT22;34843;48.744;8.958;2024-03-25T12:54:42;11.50;99.90
3202;DHT22;34843;48.744;8.958;2024-03-25T12:57:08;11.40;99.90
3202;DHT22;34843;48.744;8.958;2024-03-25T12:59:34;11.50;99.90
3202;DHT22;34843;48.744;8.958;2024-03-25T13:02:00;11.60;99.90
3202;DHT22;34843;48.744;8.958;2024-03-25T13:04:26;11.70;99.90
3202;DHT22;34843;48.744;8.958;2024-03-25T13:06:52;11.80;99.90
3202;DHT22;34843;48.744;8.958;2024-03-25T13:09:17;11.70;99.90
3202;DHT22;34843;48.744;8.958;2024-03-25T13:11:43;11.70;99.90
3202;DHT22;34843;48.744;8.958;2024-03-25T13:14:11;11.60;99.90
3202;DHT22;34843;48.744;8.958;2024-03-25T13:16:37;11.60;99.90
3202;DHT22;34843;48.744;8.958;2024-03-25T13:19:02;11.40;99.90
3202;DHT22;34843;48.744;8.958;2024-03-25T13:21:28;11.40;99.90
3202;DHT22;34843;48.744;8.958;2024-03-25T13:23:54;11.60;99.90
3202;DHT22;34843;48.744;8.958;2024-03-25T13:26:20;11.80;99.90
3202;DHT22;34843;48.744;8.958;2024-03-25T13:28:45;12.00;99.90
3202;DHT22;34843;48.744;8.958;2024-03-25T13:31:11;12.00;99.90
3202;DHT22;34843;48.744;8.958;2024-03-25T13:33:38;11.90;99.90
3202;DHT22;34843;48.744;8.958;2024-03-25T13:36:05;11.90;99.90
3202;DHT22;34843;48.744;8.958;2024-03-25T13:38:31;11.90;99.90
3202;DHT22;34843;48.744;8.958;2024-03-25T13:40:57;11.60;99.90
3202;DHT22;34843;48.744;8.958;2024-03-25T13:43:22;11.30;99.90
3202;DHT22;34843;48.744;8.958;2024-03-25T13:45:49;11.20;99.90
3202;DHT22;34843;48.744;8.958;2024-03-25T13:48:15;11.20;99.90
3202;DHT22;34843;48.744;8.958;2024-03-25T13:50:41;11.20;99.90
3202;DHT22;34843;48.744;8.958;2024-03-25T13:53:07;11.30;99.90
3202;DHT22;34843;48.744;8.958;2024-03-25T13:55:33;11.30;99.90
3202;DHT22;34843;48.744;8.958;2024-03-25T13:57:58;11.30;99.90
3202;DHT22;34843;48.744;8.958;2024-03-25T14:00:24;11.40;99.90
3202;DHT22;34843;48.744;8.958;2024-03-25T14:02:52;11.40;99.90
3202;DHT22;34843;48.744;8.958;2024-03-25T14:05:17;11.30;99.90
3202;DHT22;34843;48.744;8.958;2024-03-25T14:07:43;11.30;99.90
3202;DHT22;34843;48.744;8.958;2024-03-25T14:10:09;11.20;99.90
3202;DHT22;34843;48.744;8.958;2024-03-25T14:12:36;11.20;99.90
3202;DHT22;34843;48.744;8.958;2024-03-25T14:15:02;11.00;99.90
3202;DHT22;34843;48.744;8.958;2024-03-25T14:17:28;11.00;99.90
3202;DHT22;34843;48.744;8.958;2024-03-25T14:19:54;11.00;99.90
3202;DHT22;34843;48.744;8.958;2024-03-25T14:22:21;11.10;99.90
3202;DHT22;34843;48.744;8.958;2024-03-25T14:24:46;11.00;99.90
3202;DHT22;34843;48.744;8.958;2024-03-25T14:27:13;11.10;99.90
3202;DHT22;34843;48.744;8.958;2024-03-25T14:29:38;11.10;99.90
3202;DHT22;34843;48.744;8.958;2024-03-25T14:32:04;11.10;99.90
3202;DHT22;34843;48.744;8.958;2024-03-25T14:34:29;11.00;99.90
3202;DHT22;34843;48.744;8.958;2024-03-25T14:36:55;11.00;99.90
3202;DHT22;34843;48.744;8.958;2024-03-25T14:39:22;11.00;99.90
3202;DHT22;34843;48.744;8.958;2024-03-25T14:41:47;11.00;99.90
3202;DHT22;34843;48.744;8.958;2024-03-25T14:44:13;11.10;99.90
3202;DHT22;34843;48.744;8.958;2024-03-25T14:46:39;11.20;99.90
3202;DHT22;34843;48.744;8.958;2024-03-25T14:49:04;11.20;99.90
3202;DHT22;34843;48.744;8.958;2024-03-25T14:51:30;11.20;99.90
3202;DHT22;34843;48.744;8.958;2024-03-25T14:53:55;11.20;99.90
3202;DHT22;34843;48.744;8.958;2024-03-25T14:56:21;11.30;99.90
3202;DHT22;34843;48.744;8.958;2024-03-25T14:58:46;11.40;99.90
3202;DHT22;34843;48.744;8.958;2024-03-25T15:01:11;11.40;99.90
3202;DHT22;34843;48.744;8.958;2024-03-25T15:03:37;11.30;99.90
3202;DHT22;34843;48.744;8.958;2024-03-25T15:06:03;11.30;99.90
3202;DHT22;34843;48.744;8.958;2024-03-25T15:08:31;11.20;99.90
3202;DHT22;34843;48.744;8.958;2024-03-25T15:10:57;11.10;99.90
3202;DHT22;34843;48.744;8.958;2024-03-25T15:13:22;11.00;99.90
3202;DHT22;34843;48.744;8.958;2024-03-25T15:15:48;11.00;99.90
3202;DHT22;34843;48.744;8.958;2024-03-25T15:18:13;11.00;99.90
3202;DHT22;34843;48.744;8.958;2024-03-25T15:20:39;11.10;99.90
3202;DHT22;34843;48.744;8.958;2024-03-25T15:23:04;11.10;99.90
3202;DHT22;34843;48.744;8.958;2024-03-25T15:25:31;11.10;99.90
3202;DHT22;34843;48.744;8.958;2024-03-25T15:27:57;11.20;99.90
3202;DHT22;34843;48.744;8.958;2024-03-25T15:30:23;11.10;99.90
3202;DHT22;34843;48.744;8.958;2024-03-25T15:35:15;11.00;99.90
3202;DHT22;34843;48.744;8.958;2024-03-25T15:37:41;11.00;99.90
3202;DHT22;34843;48.744;8.958;2024-03-25T15:40:07;11.10;99.90
3202;DHT22;34843;48.744;8.958;2024-03-25T15:42:34;11.10;99.90
3202;DHT22;34843;48.744;8.958;2024-03-25T15:45:00;11.10;99.90
3202;DHT22;34843;48.744;8.958;2024-03-25T15:47:26;11.00;99.90
3202;DHT22;34843;48.744;8.958;2024-03-25T15:49:51;11.10;99.90
3202;DHT22;34843;48.744;8.958;2024-03-25T15:52:17;11.00;99.90
3202;DHT22;34843;48.744;8.958;2024-03-25T15:54:43;10.90;99.90
3202;DHT22;34843;48.744;8.958;2024-03-25T15:57:08;10.90;99.90
3202;DHT22;34843;48.744;8.958;2024-03-25T15:59:34;10.90;99.90